Terminal Aerodrome Forecast
Issued by NWS

Current Version | Previous Version | Text Only | Print | Product List | Glossary Off
Versions: 1 2 3 4 5 6 7 8 9 10 11 12 13 14 15 16 17

000
FTUS41 KRLX 181400 AAA
TAFCKB
TAF AMD
KCKB 181453Z 1815/1912 13005KT P6SM SCT100 SCT250
     FM181600 21005KT P6SM SCT100 SCT250
     FM190000 00000KT P6SM SCT250=

USA.gov is the U.S. government's official web portal to all federal, state and local government web resources and services.